sensor_id;sensor_type;location;lat;lon;timestamp;temperature;humidity
17529;DHT22;8882;53.192;8.184;2023-02-03T05:31:29;8.30;99.90
17529;DHT22;8882;53.192;8.184;2023-02-03T05:33:54;8.30;99.90
17529;DHT22;8882;53.192;8.184;2023-02-03T05:36:20;8.30;99.90
17529;DHT22;8882;53.192;8.184;2023-02-03T05:38:45;8.30;99.90
17529;DHT22;8882;53.192;8.184;2023-02-03T05:41:11;8.30;99.90
17529;DHT22;8882;53.192;8.184;2023-02-03T05:43:55;8.30;99.90
17529;DHT22;8882;53.192;8.184;2023-02-03T05:46:21;8.20;99.90
17529;DHT22;8882;53.192;8.184;2023-02-03T05:48:47;8.20;99.90
17529;DHT22;8882;53.192;8.184;2023-02-03T05:51:12;8.10;99.90
17529;DHT22;8882;53.192;8.184;2023-02-03T05:53:38;8.10;99.90
17529;DHT22;8882;53.192;8.184;2023-02-03T05:56:03;8.00;99.90
17529;DHT22;8882;53.192;8.184;2023-02-03T05:58:29;8.00;99.90
17529;DHT22;8882;53.192;8.184;2023-02-03T06:00:55;8.00;99.90
17529;DHT22;8882;53.192;8.184;2023-02-03T06:03:20;8.00;99.90
17529;DHT22;8882;53.192;8.184;2023-02-03T06:05:46;8.10;99.90
17529;DHT22;8882;53.192;8.184;2023-02-03T06:08:11;8.10;99.90
17529;DHT22;8882;53.192;8.184;2023-02-03T06:10:37;8.20;99.90
17529;DHT22;8882;53.192;8.184;2023-02-03T06:13:14;8.20;99.90
17529;DHT22;8882;53.192;8.184;2023-02-03T06:15:41;8.20;99.90
17529;DHT22;8882;53.192;8.184;2023-02-03T06:18:07;8.30;99.90
17529;DHT22;8882;53.192;8.184;2023-02-03T06:20:33;8.40;99.90
17529;DHT22;8882;53.192;8.184;2023-02-03T06:22:58;8.40;99.90
17529;DHT22;8882;53.192;8.184;2023-02-03T06:25:24;8.50;99.90
17529;DHT22;8882;53.192;8.184;2023-02-03T06:27:50;8.50;99.90
17529;DHT22;8882;53.192;8.184;2023-02-03T06:30:16;8.50;99.90
17529;DHT22;8882;53.192;8.184;2023-02-03T06:32:41;8.50;99.90
17529;DHT22;8882;53.192;8.184;2023-02-03T06:35:07;8.50;99.90
17529;DHT22;8882;53.192;8.184;2023-02-03T06:37:33;8.50;99.90
17529;DHT22;8882;53.192;8.184;2023-02-03T06:40:00;8.50;99.90
17529;DHT22;8882;53.192;8.184;2023-02-03T06:42:25;8.60;99.90
17529;DHT22;8882;53.192;8.184;2023-02-03T06:44:51;8.60;99.90
17529;DHT22;8882;53.192;8.184;2023-02-03T06:47:16;8.60;99.90
17529;DHT22;8882;53.192;8.184;2023-02-03T06:49:42;8.60;99.90
17529;DHT22;8882;53.192;8.184;2023-02-03T06:52:07;8.60;99.90
17529;DHT22;8882;53.192;8.184;2023-02-03T06:54:33;8.60;99.90
17529;DHT22;8882;53.192;8.184;2023-02-03T06:56:58;8.60;99.90
17529;DHT22;8882;53.192;8.184;2023-02-03T06:59:24;8.60;99.90
17529;DHT22;8882;53.192;8.184;2023-02-03T07:01:49;8.60;99.90
17529;DHT22;8882;53.192;8.184;2023-02-03T07:04:15;8.60;99.90
17529;DHT22;8882;53.192;8.184;2023-02-03T07:06:40;8.60;99.90
17529;DHT22;8882;53.192;8.184;2023-02-03T07:09:06;8.70;99.90
17529;DHT22;8882;53.192;8.184;2023-02-03T07:11:32;8.70;99.90
17529;DHT22;8882;53.192;8.184;2023-02-03T07:13:57;8.70;99.90
17529;DHT22;8882;53.192;8.184;2023-02-03T07:16:23;8.70;99.90
17529;DHT22;8882;53.192;8.184;2023-02-03T07:18:49;8.70;99.90
17529;DHT22;8882;53.192;8.184;2023-02-03T07:21:15;8.70;99.90
17529;DHT22;8882;53.192;8.184;2023-02-03T07:23:41;8.60;99.90
17529;DHT22;8882;53.192;8.184;2023-02-03T07:26:07;8.70;99.90
17529;DHT22;8882;53.192;8.184;2023-02-03T07:28:34;8.70;99.90
17529;DHT22;8882;53.192;8.184;2023-02-03T07:31:00;8.70;99.90
17529;DHT22;8882;53.192;8.184;2023-02-03T07:33:27;8.70;99.90
17529;DHT22;8882;53.192;8.184;2023-02-03T07:35:59;8.70;99.90
17529;DHT22;8882;53.192;8.184;2023-02-03T07:38:26;8.70;99.90
17529;DHT22;8882;53.192;8.184;2023-02-03T07:40:52;8.70;99.90
17529;DHT22;8882;53.192;8.184;2023-02-03T07:43:18;8.70;99.90
17529;DHT22;8882;53.192;8.184;2023-02-03T07:45:44;8.70;99.90
17529;DHT22;8882;53.192;8.184;2023-02-03T07:48:10;8.70;99.90
17529;DHT22;8882;53.192;8.184;2023-02-03T07:50:36;8.80;99.90
17529;DHT22;8882;53.192;8.184;2023-02-03T07:53:02;8.80;99.90
17529;DHT22;8882;53.192;8.184;2023-02-03T07:55:28;8.80;99.90
17529;DHT22;8882;53.192;8.184;2023-02-03T07:57:55;8.80;99.90
17529;DHT22;8882;53.192;8.184;2023-02-03T08:00:21;8.80;99.90
17529;DHT22;8882;53.192;8.184;2023-02-03T08:02:46;8.80;99.90
17529;DHT22;8882;53.192;8.184;2023-02-03T08:05:12;8.80;99.90
17529;DHT22;8882;53.192;8.184;2023-02-03T08:07:38;8.80;99.90
17529;DHT22;8882;53.192;8.184;2023-02-03T08:10:05;8.80;99.90
17529;DHT22;8882;53.192;8.184;2023-02-03T08:12:31;8.80;99.90
17529;DHT22;8882;53.192;8.184;2023-02-03T08:14:57;8.80;99.90
17529;DHT22;8882;53.192;8.184;2023-02-03T08:17:23;8.80;99.90
17529;DHT22;8882;53.192;8.184;2023-02-03T08:19:48;8.80;99.90
17529;DHT22;8882;53.192;8.184;2023-02-03T08:22:14;8.80;99.90
17529;DHT22;8882;53.192;8.184;2023-02-03T08:24:43;8.80;99.90
17529;DHT22;8882;53.192;8.184;2023-02-03T08:27:16;8.80;99.90
17529;DHT22;8882;53.192;8.184;2023-02-03T08:29:42;8.90;99.90
17529;DHT22;8882;53.192;8.184;2023-02-03T08:32:09;8.90;99.90
17529;DHT22;8882;53.192;8.184;2023-02-03T08:34:35;8.90;99.90
17529;DHT22;8882;53.192;8.184;2023-02-03T08:37:00;8.90;99.90
17529;DHT22;8882;53.192;8.184;2023-02-03T08:39:26;8.90;99.90
17529;DHT22;8882;53.192;8.184;2023-02-03T08:41:51;8.90;99.90
17529;DHT22;8882;53.192;8.184;2023-02-03T08:44:17;9.00;99.90
17529;DHT22;8882;53.192;8.184;2023-02-03T08:46:44;9.00;99.90
17529;DHT22;8882;53.192;8.184;2023-02-03T08:49:10;9.10;99.90
17529;DHT22;8882;53.192;8.184;2023-02-03T08:51:36;9.10;99.90
17529;DHT22;8882;53.192;8.184;2023-02-03T08:54:02;9.10;99.90
17529;DHT22;8882;53.192;8.184;2023-02-03T08:56:28;9.10;99.90
17529;DHT22;8882;53.192;8.184;2023-02-03T08:58:53;9.10;99.90
17529;DHT22;8882;53.192;8.184;2023-02-03T09:01:20;9.10;99.90
17529;DHT22;8882;53.192;8.184;2023-02-03T09:03:45;9.00;99.90
17529;DHT22;8882;53.192;8.184;2023-02-03T09:06:11;8.90;99.90
17529;DHT22;8882;53.192;8.184;2023-02-03T09:08:37;8.90;99.90
17529;DHT22;8882;53.192;8.184;2023-02-03T09:11:11;8.90;99.90
17529;DHT22;8882;53.192;8.184;2023-02-03T09:13:37;8.70;99.90
17529;DHT22;8882;53.192;8.184;2023-02-03T09:16:05;8.70;99.90
17529;DHT22;8882;53.192;8.184;2023-02-03T09:18:31;8.60;99.90
17529;DHT22;8882;53.192;8.184;2023-02-03T09:21:03;8.50;99.90
17529;DHT22;8882;53.192;8.184;2023-02-03T09:23:29;8.50;99.90
17529;DHT22;8882;53.192;8.184;2023-02-03T09:26:00;8.50;99.90
17529;DHT22;8882;53.192;8.184;2023-02-03T09:28:25;8.50;99.90
17529;DHT22;8882;53.192;8.184;2023-02-03T09:30:51;8.50;99.90
17529;DHT22;8882;53.192;8.184;2023-02-03T09:33:16;8.90;99.90
17529;DHT22;8882;53.192;8.184;2023-02-03T09:35:51;8.90;99.90
17529;DHT22;8882;53.192;8.184;2023-02-03T09:38:16;8.90;99.90
17529;DHT22;8882;53.192;8.184;2023-02-03T09:40:42;8.80;99.90
17529;DHT22;8882;53.192;8.184;2023-02-03T09:43:23;8.80;99.90
17529;DHT22;8882;53.192;8.184;2023-02-03T09:45:58;8.80;99.90
17529;DHT22;8882;53.192;8.184;2023-02-03T09:48:29;8.90;99.90
17529;DHT22;8882;53.192;8.184;2023-02-03T09:50:57;8.90;99.90
17529;DHT22;8882;53.192;8.184;2023-02-03T09:53:28;9.00;99.90
17529;DHT22;8882;53.192;8.184;2023-02-03T09:55:57;9.00;99.90
17529;DHT22;8882;53.192;8.184;2023-02-03T09:58:24;9.00;99.90
17529;DHT22;8882;53.192;8.184;2023-02-03T10:00:59;9.10;99.90
17529;DHT22;8882;53.192;8.184;2023-02-03T10:03:42;9.10;99.90
17529;DHT22;8882;53.192;8.184;2023-02-03T10:06:20;9.10;99.90
17529;DHT22;8882;53.192;8.184;2023-02-03T10:14:45;9.30;99.90
17529;DHT22;8882;53.192;8.184;2023-02-03T10:17:35;9.30;99.90
17529;DHT22;8882;53.192;8.184;2023-02-03T10:22:40;9.40;99.90
17529;DHT22;8882;53.192;8.184;2023-02-03T10:27:39;9.40;99.90
17529;DHT22;8882;53.192;8.184;2023-02-03T10:30:21;9.40;99.90
17529;DHT22;8882;53.192;8.184;2023-02-03T10:32:53;9.40;99.90
17529;DHT22;8882;53.192;8.184;2023-02-03T10:35:21;9.40;99.90
17529;DHT22;8882;53.192;8.184;2023-02-03T10:37:56;9.40;99.90
17529;DHT22;8882;53.192;8.184;2023-02-03T10:40:25;9.50;99.90
17529;DHT22;8882;53.192;8.184;2023-02-03T10:42:51;9.50;99.90
17529;DHT22;8882;53.192;8.184;2023-02-03T10:45:37;9.50;99.90
17529;DHT22;8882;53.192;8.184;2023-02-03T10:48:05;9.60;99.90
17529;DHT22;8882;53.192;8.184;2023-02-03T10:50:34;9.60;99.90
17529;DHT22;8882;53.192;8.184;2023-02-03T10:53:34;9.70;99.90
17529;DHT22;8882;53.192;8.184;2023-02-03T10:56:07;9.70;99.90
17529;DHT22;8882;53.192;8.184;2023-02-03T10:58:36;9.70;99.90
17529;DHT22;8882;53.192;8.184;2023-02-03T11:01:09;9.70;99.90
17529;DHT22;8882;53.192;8.184;2023-02-03T11:03:35;9.80;99.90
17529;DHT22;8882;53.192;8.184;2023-02-03T11:08:38;9.90;99.90
17529;DHT22;8882;53.192;8.184;2023-02-03T11:11:07;10.00;99.90
17529;DHT22;8882;53.192;8.184;2023-02-03T11:13:33;10.10;99.90
17529;DHT22;8882;53.192;8.184;2023-02-03T11:16:06;10.10;99.90
17529;DHT22;8882;53.192;8.184;2023-02-03T11:21:29;10.20;99.90
17529;DHT22;8882;53.192;8.184;2023-02-03T11:24:19;10.20;99.90
17529;DHT22;8882;53.192;8.184;2023-02-03T11:26:53;10.00;99.90
17529;DHT22;8882;53.192;8.184;2023-02-03T11:29:23;10.10;99.90
17529;DHT22;8882;53.192;8.184;2023-02-03T11:31:52;10.20;99.90
17529;DHT22;8882;53.192;8.184;2023-02-03T11:34:22;10.20;99.90
17529;DHT22;8882;53.192;8.184;2023-02-03T11:36:50;10.30;99.90
17529;DHT22;8882;53.192;8.184;2023-02-03T11:39:19;10.30;99.90
17529;DHT22;8882;53.192;8.184;2023-02-03T11:41:45;10.30;99.90
17529;DHT22;8882;53.192;8.184;2023-02-03T11:44:19;10.40;99.90
17529;DHT22;8882;53.192;8.184;2023-02-03T11:46:47;10.40;99.90
17529;DHT22;8882;53.192;8.184;2023-02-03T12:09:18;10.00;99.90
17529;DHT22;8882;53.192;8.184;2023-02-03T12:14:53;9.90;99.90
17529;DHT22;8882;53.192;8.184;2023-02-03T12:17:40;9.90;99.90
17529;DHT22;8882;53.192;8.184;2023-02-03T12:22:59;9.80;99.90
17529;DHT22;8882;53.192;8.184;2023-02-03T12:25:53;9.70;99.90
17529;DHT22;8882;53.192;8.184;2023-02-03T12:28:34;9.70;99.90
17529;DHT22;8882;53.192;8.184;2023-02-03T12:31:12;9.70;99.90
17529;DHT22;8882;53.192;8.184;2023-02-03T12:33:42;9.70;99.90
17529;DHT22;8882;53.192;8.184;2023-02-03T12:36:17;9.70;99.90
17529;DHT22;8882;53.192;8.184;2023-02-03T12:39:01;9.70;99.90
17529;DHT22;8882;53.192;8.184;2023-02-03T12:41:32;9.60;99.90
17529;DHT22;8882;53.192;8.184;2023-02-03T12:44:17;9.60;99.90
17529;DHT22;8882;53.192;8.184;2023-02-03T12:46:50;9.70;99.90
17529;DHT22;8882;53.192;8.184;2023-02-03T12:49:38;9.60;99.90
17529;DHT22;8882;53.192;8.184;2023-02-03T12:55:02;9.60;99.90
17529;DHT22;8882;53.192;8.184;2023-02-03T12:57:37;9.60;99.90
17529;DHT22;8882;53.192;8.184;2023-02-03T13:03:08;9.60;99.90
17529;DHT22;8882;53.192;8.184;2023-02-03T13:08:29;9.70;99.90
17529;DHT22;8882;53.192;8.184;2023-02-03T13:10:58;9.70;99.90
17529;DHT22;8882;53.192;8.184;2023-02-03T13:13:33;9.60;99.90
17529;DHT22;8882;53.192;8.184;2023-02-03T13:16:01;9.50;99.90
17529;DHT22;8882;53.192;8.184;2023-02-03T13:18:34;9.50;99.90
17529;DHT22;8882;53.192;8.184;2023-02-03T13:21:00;9.50;99.90
17529;DHT22;8882;53.192;8.184;2023-02-03T13:23:26;9.50;99.90
17529;DHT22;8882;53.192;8.184;2023-02-03T13:34:12;9.40;99.90
17529;DHT22;8882;53.192;8.184;2023-02-03T13:42:22;9.30;99.90
17529;DHT22;8882;53.192;8.184;2023-02-03T13:47:51;9.10;99.90
17529;DHT22;8882;53.192;8.184;2023-02-03T13:50:23;9.00;99.90
17529;DHT22;8882;53.192;8.184;2023-02-03T13:53:02;9.00;99.90
17529;DHT22;8882;53.192;8.184;2023-02-03T13:55:40;9.00;99.90
17529;DHT22;8882;53.192;8.184;2023-02-03T13:58:21;9.00;99.90
17529;DHT22;8882;53.192;8.184;2023-02-03T14:03:17;9.10;99.90
17529;DHT22;8882;53.192;8.184;2023-02-03T14:05:47;9.00;99.90
17529;DHT22;8882;53.192;8.184;2023-02-03T14:16:39;8.90;99.90
17529;DHT22;8882;53.192;8.184;2023-02-03T14:19:10;8.90;99.90
17529;DHT22;8882;53.192;8.184;2023-02-03T14:21:50;8.90;99.90
17529;DHT22;8882;53.192;8.184;2023-02-03T14:24:16;8.90;99.90
17529;DHT22;8882;53.192;8.184;2023-02-03T14:26:49;8.90;99.90
17529;DHT22;8882;53.192;8.184;2023-02-03T14:29:33;8.90;99.90
17529;DHT22;8882;53.192;8.184;2023-02-03T14:32:08;8.90;99.90
17529;DHT22;8882;53.192;8.184;2023-02-03T14:34:36;8.80;99.90
17529;DHT22;8882;53.192;8.184;2023-02-03T14:37:20;8.80;99.90
17529;DHT22;8882;53.192;8.184;2023-02-03T14:43:12;8.80;99.90
17529;DHT22;8882;53.192;8.184;2023-02-03T14:46:15;8.80;99.90
17529;DHT22;8882;53.192;8.184;2023-02-03T14:48:50;8.90;99.90
17529;DHT22;8882;53.192;8.184;2023-02-03T14:51:36;8.80;99.90
17529;DHT22;8882;53.192;8.184;2023-02-03T14:54:17;8.70;99.90
17529;DHT22;8882;53.192;8.184;2023-02-03T14:56:58;8.60;99.90
17529;DHT22;8882;53.192;8.184;2023-02-03T15:00:05;8.50;99.90
17529;DHT22;8882;53.192;8.184;2023-02-03T15:02:32;8.50;99.90
17529;DHT22;8882;53.192;8.184;2023-02-03T15:07:48;8.40;99.90
17529;DHT22;8882;53.192;8.184;2023-02-03T15:10:21;8.40;99.90
17529;DHT22;8882;53.192;8.184;2023-02-03T15:12:49;8.30;99.90
17529;DHT22;8882;53.192;8.184;2023-02-03T15:17:45;8.30;99.90
17529;DHT22;8882;53.192;8.184;2023-02-03T15:22:50;8.30;99.90
17529;DHT22;8882;53.192;8.184;2023-02-03T15:25:18;8.30;99.90
17529;DHT22;8882;53.192;8.184;2023-02-03T15:27:44;8.30;99.90
17529;DHT22;8882;53.192;8.184;2023-02-03T15:30:17;8.30;99.90
17529;DHT22;8882;53.192;8.184;2023-02-03T15:33:01;8.30;99.90
17529;DHT22;8882;53.192;8.184;2023-02-03T15:35:31;8.30;99.90
17529;DHT22;8882;53.192;8.184;2023-02-03T15:38:04;8.40;99.90
17529;DHT22;8882;53.192;8.184;2023-02-03T15:40:54;8.30;99.90
17529;DHT22;8882;53.192;8.184;2023-02-03T15:43:42;8.30;99.90
17529;DHT22;8882;53.192;8.184;2023-02-03T15:46:17;8.30;99.90
17529;DHT22;8882;53.192;8.184;2023-02-03T15:48:51;8.30;99.90
17529;DHT22;8882;53.192;8.184;2023-02-03T15:51:43;8.30;99.90
17529;DHT22;8882;53.192;8.184;2023-02-03T15:54:18;8.30;99.90
17529;DHT22;8882;53.192;8.184;2023-02-03T15:56:50;8.20;99.90
17529;DHT22;8882;53.192;8.184;2023-02-03T15:59:31;8.30;99.90
17529;DHT22;8882;53.192;8.184;2023-02-03T16:01:59;8.20;99.90
17529;DHT22;8882;53.192;8.184;2023-02-03T16:04:25;8.20;99.90
17529;DHT22;8882;53.192;8.184;2023-02-03T16:06:52;8.20;99.90
17529;DHT22;8882;53.192;8.184;2023-02-03T16:09:38;8.20;99.90
17529;DHT22;8882;53.192;8.184;2023-02-03T16:12:14;8.20;99.90
17529;DHT22;8882;53.192;8.184;2023-02-03T16:14:41;8.10;99.90
17529;DHT22;8882;53.192;8.184;2023-02-03T16:17:28;8.10;99.90
17529;DHT22;8882;53.192;8.184;2023-02-03T16:22:41;8.10;99.90
17529;DHT22;8882;53.192;8.184;2023-02-03T16:25:18;8.10;99.90
17529;DHT22;8882;53.192;8.184;2023-02-03T16:27:54;8.10;99.90
17529;DHT22;8882;53.192;8.184;2023-02-03T16:30:39;8.10;99.90
17529;DHT22;8882;53.192;8.184;2023-02-03T16:33:35;8.00;99.90
17529;DHT22;8882;53.192;8.184;2023-02-03T16:36:19;8.00;99.90
17529;DHT22;8882;53.192;8.184;2023-02-03T16:39:08;8.00;99.90
17529;DHT22;8882;53.192;8.184;2023-02-03T16:41:53;8.00;99.90
17529;DHT22;8882;53.192;8.184;2023-02-03T16:44:37;7.90;99.90
17529;DHT22;8882;53.192;8.184;2023-02-03T16:47:27;7.90;99.90
17529;DHT22;8882;53.192;8.184;2023-02-03T16:53:01;7.80;99.90
17529;DHT22;8882;53.192;8.184;2023-02-03T16:55:26;7.80;99.90
17529;DHT22;8882;53.192;8.184;2023-02-03T16:57:52;7.80;99.90
17529;DHT22;8882;53.192;8.184;2023-02-03T17:00:18;7.80;99.90
17529;DHT22;8882;53.192;8.184;2023-02-03T17:02:49;7.80;99.90
17529;DHT22;8882;53.192;8.184;2023-02-03T17:05:16;7.80;99.90
17529;DHT22;8882;53.192;8.184;2023-02-03T17:07:41;7.80;99.90
17529;DHT22;8882;53.192;8.184;2023-02-03T17:10:08;7.80;99.90
17529;DHT22;8882;53.192;8.184;2023-02-03T17:12:33;7.70;99.90
17529;DHT22;8882;53.192;8.184;2023-02-03T17:14:59;7.80;99.90
17529;DHT22;8882;53.192;8.184;2023-02-03T17:17:25;7.80;99.90
17529;DHT22;8882;53.192;8.184;2023-02-03T17:19:50;7.70;99.90
17529;DHT22;8882;53.192;8.184;2023-02-03T17:22:16;7.80;99.90
17529;DHT22;8882;53.192;8.184;2023-02-03T17:24:41;7.80;99.90
17529;DHT22;8882;53.192;8.184;2023-02-03T17:27:07;7.70;99.90
17529;DHT22;8882;53.192;8.184;2023-02-03T17:29:32;7.70;99.90
17529;DHT22;8882;53.192;8.184;2023-02-03T17:31:58;7.90;99.90
17529;DHT22;8882;53.192;8.184;2023-02-03T17:34:23;7.80;99.90
17529;DHT22;8882;53.192;8.184;2023-02-03T17:36:48;7.80;99.90
17529;DHT22;8882;53.192;8.184;2023-02-03T17:39:14;7.80;99.90
17529;DHT22;8882;53.192;8.184;2023-02-03T17:41:40;7.80;99.90
17529;DHT22;8882;53.192;8.184;2023-02-03T17:44:05;7.70;99.90
17529;DHT22;8882;53.192;8.184;2023-02-03T17:46:31;7.80;99.90
17529;DHT22;8882;53.192;8.184;2023-02-03T17:48:57;7.90;99.90
17529;DHT22;8882;53.192;8.184;2023-02-03T17:51:23;7.80;99.90
17529;DHT22;8882;53.192;8.184;2023-02-03T17:53:51;7.70;99.90
17529;DHT22;8882;53.192;8.184;2023-02-03T17:56:20;7.70;99.90
17529;DHT22;8882;53.192;8.184;2023-02-03T17:58:47;7.70;99.90
17529;DHT22;8882;53.192;8.184;2023-02-03T18:01:16;7.60;99.90
17529;DHT22;8882;53.192;8.184;2023-02-03T18:03:48;7.60;99.90
17529;DHT22;8882;53.192;8.184;2023-02-03T18:06:16;7.50;99.90
17529;DHT22;8882;53.192;8.184;2023-02-03T18:08:43;7.50;99.90
17529;DHT22;8882;53.192;8.184;2023-02-03T18:11:09;7.50;99.90
17529;DHT22;8882;53.192;8.184;2023-02-03T18:13:39;7.50;99.90
17529;DHT22;8882;53.192;8.184;2023-02-03T18:16:10;7.50;99.90
17529;DHT22;8882;53.192;8.184;2023-02-03T18:18:36;7.50;99.90
17529;DHT22;8882;53.192;8.184;2023-02-03T18:21:07;7.50;99.90
17529;DHT22;8882;53.192;8.184;2023-02-03T18:23:33;7.50;99.90
17529;DHT22;8882;53.192;8.184;2023-02-03T18:25:59;7.50;99.90
17529;DHT22;8882;53.192;8.184;2023-02-03T18:28:25;7.50;99.90
17529;DHT22;8882;53.192;8.184;2023-02-03T18:30:50;7.50;99.90
17529;DHT22;8882;53.192;8.184;2023-02-03T18:33:16;7.50;99.90
17529;DHT22;8882;53.192;8.184;2023-02-03T18:35:43;7.50;99.90
17529;DHT22;8882;53.192;8.184;2023-02-03T18:38:11;7.50;99.90
17529;DHT22;8882;53.192;8.184;2023-02-03T18:40:37;7.50;99.90
17529;DHT22;8882;53.192;8.184;2023-02-03T18:43:03;7.50;99.90
17529;DHT22;8882;53.192;8.184;2023-02-03T18:45:28;7.50;99.90
17529;DHT22;8882;53.192;8.184;2023-02-03T18:47:55;7.60;99.90
17529;DHT22;8882;53.192;8.184;2023-02-03T18:50:21;7.90;99.90
17529;DHT22;8882;53.192;8.184;2023-02-03T18:52:46;8.10;99.90
17529;DHT22;8882;53.192;8.184;2023-02-03T18:55:12;8.10;99.90
17529;DHT22;8882;53.192;8.184;2023-02-03T18:57:38;8.00;99.90
17529;DHT22;8882;53.192;8.184;2023-02-03T19:00:05;7.90;99.90
17529;DHT22;8882;53.192;8.184;2023-02-03T19:02:32;7.80;99.90
17529;DHT22;8882;53.192;8.184;2023-02-03T19:04:57;7.70;99.90
17529;DHT22;8882;53.192;8.184;2023-02-03T19:07:23;7.70;99.90
17529;DHT22;8882;53.192;8.184;2023-02-03T19:09:48;7.60;99.90
17529;DHT22;8882;53.192;8.184;2023-02-03T19:12:14;7.60;99.90
17529;DHT22;8882;53.192;8.184;2023-02-03T19:14:39;7.60;99.90
17529;DHT22;8882;53.192;8.184;2023-02-03T19:17:05;7.60;99.90
17529;DHT22;8882;53.192;8.184;2023-02-03T19:19:31;7.50;99.90
17529;DHT22;8882;53.192;8.184;2023-02-03T19:21:56;7.50;99.90
17529;DHT22;8882;53.192;8.184;2023-02-03T19:24:23;7.50;99.90
17529;DHT22;8882;53.192;8.184;2023-02-03T19:26:51;7.50;99.90
17529;DHT22;8882;53.192;8.184;2023-02-03T19:29:16;7.50;99.90
17529;DHT22;8882;53.192;8.184;2023-02-03T19:31:42;7.50;99.90
17529;DHT22;8882;53.192;8.184;2023-02-03T19:34:07;7.50;99.90
17529;DHT22;8882;53.192;8.184;2023-02-03T19:36:33;7.50;99.90
17529;DHT22;8882;53.192;8.184;2023-02-03T19:38:58;7.50;99.90
17529;DHT22;8882;53.192;8.184;2023-02-03T19:41:24;7.50;99.90
17529;DHT22;8882;53.192;8.184;2023-02-03T19:43:50;7.50;99.90
17529;DHT22;8882;53.192;8.184;2023-02-03T19:46:17;7.40;99.90
17529;DHT22;8882;53.192;8.184;2023-02-03T19:48:45;7.50;99.90
17529;DHT22;8882;53.192;8.184;2023-02-03T19:51:11;7.50;99.90
17529;DHT22;8882;53.192;8.184;2023-02-03T19:53:37;7.50;99.90
17529;DHT22;8882;53.192;8.184;2023-02-03T19:56:03;7.50;99.90
17529;DHT22;8882;53.192;8.184;2023-02-03T19:58:29;7.50;99.90
17529;DHT22;8882;53.192;8.184;2023-02-03T20:00:55;7.50;99.90
17529;DHT22;8882;53.192;8.184;2023-02-03T20:03:20;7.50;99.90
17529;DHT22;8882;53.192;8.184;2023-02-03T20:05:47;7.40;99.90
17529;DHT22;8882;53.192;8.184;2023-02-03T20:08:13;7.40;99.90
17529;DHT22;8882;53.192;8.184;2023-02-03T20:10:40;7.40;99.90
17529;DHT22;8882;53.192;8.184;2023-02-03T20:13:06;7.40;99.90
17529;DHT22;8882;53.192;8.184;2023-02-03T20:15:32;7.40;99.90
17529;DHT22;8882;53.192;8.184;2023-02-03T20:17:58;7.40;99.90
17529;DHT22;8882;53.192;8.184;2023-02-03T20:20:23;7.50;99.90
17529;DHT22;8882;53.192;8.184;2023-02-03T20:22:49;7.50;99.90
17529;DHT22;8882;53.192;8.184;2023-02-03T20:25:15;7.40;99.90
17529;DHT22;8882;53.192;8.184;2023-02-03T20:27:41;7.40;99.90
17529;DHT22;8882;53.192;8.184;2023-02-03T20:30:07;7.40;99.90
17529;DHT22;8882;53.192;8.184;2023-02-03T20:32:33;7.30;99.90
17529;DHT22;8882;53.192;8.184;2023-02-03T20:34:58;7.30;99.90
17529;DHT22;8882;53.192;8.184;2023-02-03T20:37:24;7.30;99.90
17529;DHT22;8882;53.192;8.184;2023-02-03T20:39:49;7.20;99.90
17529;DHT22;8882;53.192;8.184;2023-02-03T20:42:16;7.20;99.90
17529;DHT22;8882;53.192;8.184;2023-02-03T20:44:42;7.10;99.90
17529;DHT22;8882;53.192;8.184;2023-02-03T20:47:10;7.10;99.90
17529;DHT22;8882;53.192;8.184;2023-02-03T20:49:36;7.00;99.90
17529;DHT22;8882;53.192;8.184;2023-02-03T20:52:08;7.00;99.90
17529;DHT22;8882;53.192;8.184;2023-02-03T20:54:34;6.90;99.90
17529;DHT22;8882;53.192;8.184;2023-02-03T20:56:59;6.90;99.90
17529;DHT22;8882;53.192;8.184;2023-02-03T20:59:25;6.90;99.90
17529;DHT22;8882;53.192;8.184;2023-02-03T21:01:50;6.90;99.90
17529;DHT22;8882;53.192;8.184;2023-02-03T21:04:17;6.90;99.90
17529;DHT22;8882;53.192;8.184;2023-02-03T21:07:12;6.90;99.90
17529;DHT22;8882;53.192;8.184;2023-02-03T21:09:38;6.80;99.90
17529;DHT22;8882;53.192;8.184;2023-02-03T21:12:10;6.90;99.90
17529;DHT22;8882;53.192;8.184;2023-02-03T21:14:43;6.90;99.90
17529;DHT22;8882;53.192;8.184;2023-02-03T21:17:21;6.90;99.90
17529;DHT22;8882;53.192;8.184;2023-02-03T21:19:48;6.90;99.90
17529;DHT22;8882;53.192;8.184;2023-02-03T21:22:24;6.90;99.90
17529;DHT22;8882;53.192;8.184;2023-02-03T21:24:52;6.90;99.90
17529;DHT22;8882;53.192;8.184;2023-02-03T21:27:32;7.00;99.90
17529;DHT22;8882;53.192;8.184;2023-02-03T21:30:01;7.00;99.90
17529;DHT22;8882;53.192;8.184;2023-02-03T21:32:37;7.00;99.90
17529;DHT22;8882;53.192;8.184;2023-02-03T21:35:35;7.00;99.90
17529;DHT22;8882;53.192;8.184;2023-02-03T21:38:25;7.00;99.90
17529;DHT22;8882;53.192;8.184;2023-02-03T21:40:51;7.00;99.90
17529;DHT22;8882;53.192;8.184;2023-02-03T21:43:17;6.90;99.90
17529;DHT22;8882;53.192;8.184;2023-02-03T21:45:43;6.90;99.90
17529;DHT22;8882;53.192;8.184;2023-02-03T21:48:24;6.90;99.90
17529;DHT22;8882;53.192;8.184;2023-02-03T21:50:55;6.90;99.90
17529;DHT22;8882;53.192;8.184;2023-02-03T21:53:25;6.90;99.90
17529;DHT22;8882;53.192;8.184;2023-02-03T21:55:51;6.90;99.90
17529;DHT22;8882;53.192;8.184;2023-02-03T21:58:28;6.90;99.90
